createdAt,value
2018-11-27T00:01:56.142Z,80.65
2018-11-27T00:04:26.965Z,80.79
2018-11-27T00:06:57.662Z,80.53
2018-11-27T00:09:28.375Z,80.44
2018-11-27T00:11:59.161Z,80.34
2018-11-27T00:14:29.971Z,80.50
2018-11-27T00:17:00.739Z,80.05
2018-11-27T00:19:31.533Z,80.34
2018-11-27T00:22:02.302Z,79.54
2018-11-27T00:24:33.127Z,79.66
2018-11-27T00:27:03.932Z,79.11
2018-11-27T00:29:34.623Z,79.76
2018-11-27T00:32:05.472Z,79.87
2018-11-27T00:34:36.266Z,80.53
2018-11-27T00:37:07.015Z,79.70
2018-11-27T00:39:37.760Z,79.37
2018-11-27T00:42:08.496Z,79.65
2018-11-27T00:44:39.255Z,80.54
2018-11-27T00:47:09.967Z,80.61
2018-11-27T00:49:40.692Z,80.22
2018-11-27T00:52:11.425Z,80.20
2018-11-27T00:54:42.073Z,79.99
2018-11-27T00:57:12.740Z,80.13
2018-11-27T00:59:43.448Z,79.94
2018-11-27T01:02:14.210Z,79.79
2018-11-27T01:04:44.852Z,79.54
2018-11-27T01:07:15.594Z,79.89
2018-11-27T01:09:46.270Z,80.14
2018-11-27T01:12:16.950Z,80.71
2018-11-27T01:14:47.649Z,80.72
2018-11-27T01:17:18.348Z,80.33
2018-11-27T01:19:49.010Z,80.64
2018-11-27T01:22:19.729Z,80.25
2018-11-27T01:24:50.486Z,81.08
2018-11-27T01:27:21.200Z,80.55
2018-11-27T01:29:51.921Z,80.12
2018-11-27T01:32:22.637Z,81.21
2018-11-27T01:34:53.327Z,81.43
2018-11-27T01:37:24.018Z,81.77
2018-11-27T01:39:54.752Z,81.88
2018-11-27T01:42:25.425Z,81.74
2018-11-27T01:44:56.144Z,82.20
2018-11-27T01:47:26.909Z,81.72
2018-11-27T01:49:57.582Z,82.01
2018-11-27T01:52:28.313Z,82.50
2018-11-27T01:54:59.029Z,82.18
2018-11-27T01:57:29.711Z,82.03
2018-11-27T02:00:00.451Z,81.56
2018-11-27T02:02:31.149Z,81.96
2018-11-27T02:05:01.899Z,81.82
2018-11-27T02:07:32.607Z,81.28
2018-11-27T02:10:03.704Z,81.42
2018-11-27T02:12:34.561Z,81.22
2018-11-27T02:15:07.198Z,81.55
2018-11-27T02:17:37.947Z,81.65
2018-11-27T02:20:11.140Z,81.26
2018-11-27T02:22:42.223Z,81.08
2018-11-27T02:25:29.446Z,81.29
2018-11-27T02:28:00.197Z,81.68
2018-11-27T02:30:30.880Z,81.62
2018-11-27T02:33:01.584Z,81.50
2018-11-27T02:35:32.264Z,82.17
2018-11-27T02:38:03.050Z,82.12
2018-11-27T02:40:33.823Z,81.65
2018-11-27T02:43:04.534Z,81.49
2018-11-27T02:45:35.255Z,81.34
2018-11-27T02:48:07.575Z,81.11
2018-11-27T02:50:38.425Z,81.14
2018-11-27T02:53:09.172Z,81.58
2018-11-27T02:55:39.859Z,81.15
2018-11-27T02:58:10.612Z,81.55
2018-11-27T03:00:41.318Z,81.29
2018-11-27T03:03:12.015Z,81.03
2018-11-27T03:05:42.744Z,81.20
2018-11-27T03:08:13.430Z,81.45
2018-11-27T03:10:44.099Z,81.95
2018-11-27T03:13:14.804Z,81.52
2018-11-27T03:15:45.530Z,81.89
2018-11-27T03:18:16.206Z,82.39
2018-11-27T03:20:46.864Z,81.86
2018-11-27T03:23:17.627Z,81.72
2018-11-27T03:25:48.319Z,81.92
2018-11-27T03:28:19.074Z,82.50
2018-11-27T03:30:49.736Z,81.72
2018-11-27T03:33:20.430Z,81.59
2018-11-27T03:35:51.170Z,82.44
2018-11-27T03:38:21.851Z,82.81
2018-11-27T03:40:52.538Z,82.85
2018-11-27T03:43:23.297Z,82.81
2018-11-27T03:45:53.954Z,82.87
2018-11-27T03:48:24.666Z,83.38
2018-11-27T03:50:55.358Z,82.79
2018-11-27T03:53:26.053Z,83.26
2018-11-27T03:55:56.815Z,82.85
2018-11-27T03:58:27.567Z,83.28
2018-11-27T04:00:58.289Z,83.24
2018-11-27T04:03:29.011Z,83.01
2018-11-27T04:05:59.710Z,83.06
2018-11-27T04:08:30.400Z,82.94
2018-11-27T04:11:01.153Z,82.84
2018-11-27T04:13:31.841Z,82.62
2018-11-27T04:16:02.642Z,82.95
2018-11-27T04:18:33.312Z,82.79
2018-11-27T04:21:04.012Z,82.80
2018-11-27T04:23:34.790Z,83.23
2018-11-27T04:26:05.644Z,83.05
2018-11-27T04:28:36.449Z,83.44
2018-11-27T04:31:07.216Z,83.72
2018-11-27T04:33:38.005Z,83.66
2018-11-27T04:36:08.724Z,84.13
2018-11-27T04:38:39.570Z,84.00
2018-11-27T04:41:10.245Z,82.75
2018-11-27T04:43:41.022Z,82.97
2018-11-27T04:46:11.725Z,83.04
2018-11-27T04:48:42.564Z,83.04
2018-11-27T04:51:13.250Z,83.11
2018-11-27T04:53:43.981Z,83.41
2018-11-27T04:56:14.664Z,82.65
2018-11-27T04:58:45.412Z,82.34
2018-11-27T05:01:16.084Z,83.00
2018-11-27T05:03:46.826Z,82.92
2018-11-27T05:06:17.531Z,83.10
2018-11-27T05:08:48.227Z,83.32
2018-11-27T05:11:18.891Z,82.74
2018-11-27T05:13:49.626Z,82.83
2018-11-27T05:16:20.272Z,83.29
2018-11-27T05:18:50.990Z,82.96
2018-11-27T05:21:21.661Z,82.82
2018-11-27T05:23:52.371Z,82.92
2018-11-27T05:26:23.025Z,82.84
2018-11-27T05:28:53.740Z,82.64
2018-11-27T05:31:24.494Z,82.30
2018-11-27T05:33:55.221Z,82.87
2018-11-27T05:36:25.965Z,82.70
2018-11-27T05:38:56.626Z,82.60
2018-11-27T05:41:27.326Z,82.35
2018-11-27T05:43:58.951Z,82.66
2018-11-27T05:46:29.645Z,82.82
2018-11-27T05:49:00.364Z,82.77
2018-11-27T05:51:31.086Z,82.83
2018-11-27T05:54:01.805Z,82.70
2018-11-27T05:56:32.512Z,82.72
2018-11-27T05:59:03.189Z,84.18
2018-11-27T06:01:34.939Z,83.90
2018-11-27T06:04:06.121Z,83.26
2018-11-27T06:06:36.884Z,82.78
2018-11-27T06:09:11.099Z,82.89
2018-11-27T06:11:42.295Z,83.14
2018-11-27T06:14:13.086Z,82.91
2018-11-27T06:16:43.930Z,83.14
2018-11-27T06:19:14.614Z,83.09
2018-11-27T06:21:45.333Z,82.72
2018-11-27T06:24:16.018Z,82.40
2018-11-27T06:26:46.861Z,82.19
2018-11-27T06:29:18.683Z,82.62
2018-11-27T06:31:48.416Z,82.52
2018-11-27T06:34:19.151Z,82.76
2018-11-27T06:36:50.003Z,82.41
2018-11-27T06:39:20.663Z,82.61
2018-11-27T06:41:51.450Z,83.26
2018-11-27T06:44:22.094Z,82.84
2018-11-27T06:46:52.888Z,83.06
2018-11-27T06:49:23.553Z,82.46
2018-11-27T06:51:57.119Z,82.60
2018-11-27T06:54:27.935Z,82.69
2018-11-27T06:56:58.685Z,82.85
2018-11-27T06:59:29.360Z,82.55
2018-11-27T07:02:00.090Z,82.81
2018-11-27T07:04:30.781Z,82.29
2018-11-27T07:07:01.528Z,81.33
2018-11-27T07:09:32.289Z,81.50
2018-11-27T07:12:03.097Z,80.62
2018-11-27T07:14:33.813Z,80.34
2018-11-27T07:17:04.518Z,81.01
2018-11-27T07:19:35.279Z,80.67
2018-11-27T07:22:06.296Z,80.49
2018-11-27T07:24:37.006Z,81.42
2018-11-27T07:27:07.738Z,80.93
2018-11-27T07:29:38.446Z,81.33
2018-11-27T07:32:09.540Z,81.66
2018-11-27T07:34:39.947Z,81.52
2018-11-27T07:37:10.623Z,81.70
2018-11-27T07:39:41.304Z,80.89
2018-11-27T07:42:11.991Z,80.53
2018-11-27T07:44:42.691Z,80.02
2018-11-27T07:47:13.315Z,80.32
2018-11-27T07:49:44.036Z,80.29
2018-11-27T07:52:14.688Z,79.40
2018-11-27T07:54:45.429Z,79.47
2018-11-27T07:57:16.178Z,79.35
2018-11-27T07:59:46.931Z,79.65
2018-11-27T08:02:17.610Z,79.65
2018-11-27T08:04:48.428Z,79.63
2018-11-27T08:07:19.594Z,79.14
2018-11-27T08:09:50.390Z,79.14
2018-11-27T08:12:21.146Z,79.07
2018-11-27T08:14:51.883Z,79.12
2018-11-27T08:17:22.625Z,79.38
2018-11-27T08:19:53.313Z,79.07
2018-11-27T08:22:23.988Z,78.79
2018-11-27T08:24:54.726Z,78.46
2018-11-27T08:27:25.503Z,79.04
2018-11-27T08:29:56.196Z,78.40
2018-11-27T08:32:26.849Z,78.82
2018-11-27T08:34:57.571Z,79.38
2018-11-27T08:37:28.280Z,78.24
2018-11-27T08:39:58.910Z,77.34
2018-11-27T08:42:29.576Z,77.67
2018-11-27T08:45:00.270Z,78.56
2018-11-27T08:47:30.992Z,77.52
2018-11-27T08:50:01.773Z,77.59
2018-11-27T08:52:32.541Z,77.49
2018-11-27T08:55:03.260Z,77.35
2018-11-27T08:57:34.000Z,77.76
2018-11-27T09:00:09.709Z,76.99
2018-11-27T09:02:40.424Z,77.20
2018-11-27T09:05:12.075Z,78.01
2018-11-27T09:07:43.414Z,77.46
2018-11-27T09:10:19.960Z,76.54
2018-11-27T09:12:50.807Z,77.01
2018-11-27T09:15:23.081Z,76.46
2018-11-27T09:18:05.830Z,76.55
2018-11-27T09:20:38.171Z,76.35
2018-11-27T09:23:08.926Z,76.47
2018-11-27T09:25:39.694Z,76.79
2018-11-27T09:28:10.439Z,77.12
2018-11-27T09:30:41.224Z,76.68
2018-11-27T09:33:12.326Z,76.72
2018-11-27T09:35:43.171Z,76.35
2018-11-27T09:38:14.134Z,76.49
2018-11-27T09:40:45.034Z,75.93
2018-11-27T09:43:15.702Z,76.14
2018-11-27T09:45:47.814Z,75.58
2018-11-27T09:48:18.487Z,75.89
2018-11-27T09:50:49.285Z,76.06
2018-11-27T09:53:20.090Z,75.87
2018-11-27T09:55:50.910Z,75.04
2018-11-27T09:58:21.737Z,75.39
2018-11-27T10:00:52.511Z,74.42
2018-11-27T10:03:23.169Z,75.32
2018-11-27T10:05:53.902Z,74.45
2018-11-27T10:08:24.561Z,74.91
2018-11-27T10:10:55.265Z,74.12
2018-11-27T10:13:25.972Z,74.28
2018-11-27T10:15:56.633Z,74.47
2018-11-27T10:18:27.327Z,73.73
2018-11-27T10:20:57.989Z,74.27
2018-11-27T10:23:28.612Z,74.00
2018-11-27T10:25:59.340Z,73.53
2018-11-27T10:28:32.158Z,72.67
2018-11-27T10:31:00.785Z,72.91
2018-11-27T10:33:31.444Z,72.64
2018-11-27T10:36:02.282Z,72.37
2018-11-27T10:38:32.957Z,72.11
2018-11-27T10:41:04.798Z,72.45
2018-11-27T10:43:35.540Z,73.29
2018-11-27T10:46:06.514Z,72.20
2018-11-27T10:48:37.287Z,71.87
2018-11-27T10:51:08.048Z,72.02
2018-11-27T10:53:38.788Z,71.49
2018-11-27T10:56:09.532Z,70.35
2018-11-27T10:58:40.205Z,70.46
2018-11-27T11:01:15.985Z,71.07
2018-11-27T11:03:46.675Z,70.94
2018-11-27T11:06:17.386Z,71.06
2018-11-27T11:08:48.111Z,70.62
2018-11-27T11:11:18.841Z,70.47
2018-11-27T11:13:49.552Z,70.58
2018-11-27T11:16:20.242Z,70.24
2018-11-27T11:18:51.044Z,70.25
2018-11-27T11:21:21.791Z,70.34
2018-11-27T11:23:52.528Z,70.70
2018-11-27T11:26:23.315Z,70.56
2018-11-27T11:28:54.150Z,70.03
2018-11-27T11:31:24.823Z,69.33
2018-11-27T11:33:55.579Z,70.13
2018-11-27T11:36:26.251Z,70.91
2018-11-27T11:38:56.945Z,70.47
2018-11-27T11:41:31.265Z,70.07
2018-11-27T11:43:58.514Z,69.63
2018-11-27T11:46:29.332Z,70.29
2018-11-27T11:49:01.989Z,70.19
2018-11-27T11:51:30.824Z,70.32
2018-11-27T11:54:01.549Z,69.78
2018-11-27T11:56:32.295Z,68.83
2018-11-27T11:59:02.928Z,68.25
2018-11-27T12:01:33.615Z,68.46
2018-11-27T12:04:04.410Z,66.85
2018-11-27T12:06:35.164Z,66.28
2018-11-27T12:09:08.788Z,67.03
2018-11-27T12:11:39.530Z,67.28
2018-11-27T12:14:10.283Z,66.56
2018-11-27T12:16:40.993Z,65.99
2018-11-27T12:19:11.770Z,65.81
2018-11-27T12:21:42.514Z,66.94
2018-11-27T12:24:13.193Z,66.05
2018-11-27T12:26:43.810Z,67.06
2018-11-27T12:29:14.538Z,66.04
2018-11-27T12:31:45.268Z,67.10
2018-11-27T12:34:16.022Z,66.47
2018-11-27T12:36:46.720Z,66.08
2018-11-27T12:39:17.498Z,66.45
2018-11-27T12:41:48.294Z,67.15
2018-11-27T12:44:19.111Z,67.20
2018-11-27T12:46:49.861Z,66.67
2018-11-27T12:49:20.627Z,65.59
2018-11-27T12:51:51.353Z,65.79
2018-11-27T12:54:22.106Z,65.17
2018-11-27T12:56:52.845Z,66.53
2018-11-27T12:59:23.494Z,65.19
2018-11-27T13:01:54.209Z,66.21
2018-11-27T13:04:24.989Z,65.21
2018-11-27T13:06:55.723Z,65.08
2018-11-27T13:09:26.431Z,66.10
2018-11-27T13:11:57.325Z,66.44
2018-11-27T13:14:28.054Z,66.15
2018-11-27T13:16:58.849Z,65.75
2018-11-27T13:19:29.489Z,64.83
2018-11-27T13:22:00.279Z,65.53
2018-11-27T13:24:30.986Z,65.74
2018-11-27T13:27:01.793Z,64.70
2018-11-27T13:29:32.548Z,64.86
2018-11-27T13:32:03.247Z,64.87
2018-11-27T13:34:33.969Z,65.02
2018-11-27T13:37:04.831Z,65.42
2018-11-27T13:39:38.146Z,65.48
2018-11-27T13:42:09.520Z,65.18
2018-11-27T13:44:40.258Z,65.14
2018-11-27T13:47:10.948Z,65.88
2018-11-27T13:49:41.636Z,65.56
2018-11-27T13:52:12.308Z,66.28
2018-11-27T13:54:43.029Z,66.17
2018-11-27T13:57:13.737Z,66.04
2018-11-27T13:59:44.459Z,66.25
2018-11-27T14:02:15.402Z,66.60
2018-11-27T14:04:46.099Z,67.48
2018-11-27T14:07:16.866Z,67.61
2018-11-27T14:09:47.662Z,67.24
2018-11-27T14:12:18.387Z,67.30
2018-11-27T14:14:49.106Z,67.23
2018-11-27T14:17:19.873Z,66.66
2018-11-27T14:19:50.546Z,65.81
2018-11-27T14:22:25.099Z,67.16
2018-11-27T14:24:52.026Z,66.40
2018-11-27T14:27:22.841Z,67.04
2018-11-27T14:29:53.564Z,66.31
2018-11-27T14:32:24.378Z,66.63
2018-11-27T14:34:59.911Z,65.97
2018-11-27T14:37:25.942Z,66.59
2018-11-27T14:39:56.668Z,65.51
2018-11-27T14:42:27.366Z,66.98
2018-11-27T14:44:58.173Z,66.20
2018-11-27T14:47:28.881Z,66.99
2018-11-27T14:50:04.076Z,67.64
2018-11-27T14:52:30.304Z,67.11
2018-11-27T14:55:01.118Z,65.86
2018-11-27T14:57:31.807Z,66.02
2018-11-27T15:00:02.582Z,67.06
2018-11-27T15:02:33.274Z,67.03
2018-11-27T15:05:04.175Z,66.71
2018-11-27T15:07:34.915Z,65.26
2018-11-27T15:10:08.187Z,65.44
2018-11-27T15:12:39.088Z,65.59
2018-11-27T15:15:13.026Z,65.46
2018-11-27T15:17:43.810Z,65.60
2018-11-27T15:20:19.351Z,65.86
2018-11-27T15:22:50.036Z,65.74
2018-11-27T15:25:20.861Z,66.43
2018-11-27T15:27:51.604Z,66.09
2018-11-27T15:30:27.197Z,67.38
2018-11-27T15:33:00.446Z,67.45
2018-11-27T15:35:31.135Z,66.63
2018-11-27T15:38:01.856Z,65.96
2018-11-27T15:40:32.583Z,66.16
2018-11-27T15:43:03.384Z,66.27
2018-11-27T15:45:35.495Z,65.38
2018-11-27T15:48:09.509Z,66.11
2018-11-27T15:50:40.287Z,65.91
2018-11-27T15:53:11.114Z,66.13
2018-11-27T15:55:41.946Z,66.98
2018-11-27T15:58:14.981Z,66.47
2018-11-27T16:00:45.881Z,67.22
2018-11-27T16:03:16.563Z,66.34
2018-11-27T16:05:47.301Z,66.70
2018-11-27T16:08:17.994Z,67.56
2018-11-27T16:10:48.700Z,66.67
2018-11-27T16:13:19.434Z,65.80
2018-11-27T16:15:50.131Z,65.71
2018-11-27T16:18:20.886Z,64.38
2018-11-27T16:20:51.561Z,65.19
2018-11-27T16:23:22.321Z,65.05
2018-11-27T16:25:53.186Z,65.19
2018-11-27T16:28:23.943Z,65.09
2018-11-27T16:30:54.654Z,65.07
2018-11-27T16:33:25.450Z,64.36
2018-11-27T16:35:56.138Z,64.66
2018-11-27T16:38:26.839Z,64.39
2018-11-27T16:40:57.600Z,64.35
2018-11-27T16:43:28.341Z,64.82
2018-11-27T16:45:59.038Z,65.04
2018-11-27T16:48:29.733Z,65.59
2018-11-27T16:51:00.549Z,65.06
2018-11-27T16:53:31.181Z,64.79
2018-11-27T16:56:03.132Z,64.80
2018-11-27T16:58:32.869Z,65.52
2018-11-27T17:01:08.979Z,63.93
2018-11-27T17:03:34.274Z,64.78
2018-11-27T17:06:04.997Z,64.48
2018-11-27T17:08:35.715Z,65.11
2018-11-27T17:11:06.560Z,66.09
2018-11-27T17:13:37.261Z,66.34
2018-11-27T17:16:08.020Z,66.86
2018-11-27T17:18:38.686Z,66.77
2018-11-27T17:21:09.374Z,66.34
2018-11-27T17:23:40.049Z,66.80
2018-11-27T17:26:10.875Z,65.39
2018-11-27T17:28:41.502Z,65.78
2018-11-27T17:31:14.369Z,65.79
2018-11-27T17:34:03.596Z,65.92
2018-11-27T17:36:34.317Z,65.99
2018-11-27T17:39:07.933Z,65.37
2018-11-27T17:41:38.707Z,66.10
2018-11-27T17:44:12.592Z,66.19
2018-11-27T17:46:43.355Z,66.88
2018-11-27T17:49:14.058Z,66.85
2018-11-27T17:51:44.730Z,66.91
2018-11-27T17:54:15.416Z,67.92
2018-11-27T17:56:46.127Z,67.86
2018-11-27T17:59:16.806Z,67.41
2018-11-27T18:01:47.497Z,67.10
2018-11-27T18:04:18.273Z,67.72
2018-11-27T18:06:48.949Z,68.00
2018-11-27T18:09:19.630Z,67.52
2018-11-27T18:11:50.362Z,67.67
2018-11-27T18:14:21.069Z,68.38
2018-11-27T18:16:52.126Z,68.80
2018-11-27T18:19:22.806Z,68.54
2018-11-27T18:21:53.529Z,69.15
2018-11-27T18:24:24.215Z,69.27
2018-11-27T18:26:54.915Z,69.16
2018-11-27T18:29:25.560Z,69.64
2018-11-27T18:31:56.431Z,69.30
2018-11-27T18:34:27.086Z,68.99
2018-11-27T18:36:57.786Z,69.03
2018-11-27T18:39:28.465Z,68.33
2018-11-27T18:41:59.055Z,68.66
2018-11-27T18:44:29.735Z,68.93
2018-11-27T18:47:00.389Z,69.29
2018-11-27T18:49:31.129Z,69.25
2018-11-27T18:52:01.813Z,69.43
2018-11-27T18:54:32.543Z,69.17
2018-11-27T18:59:48.250Z,69.84
2018-11-27T19:02:18.966Z,69.73
2018-11-27T19:04:49.690Z,70.39
2018-11-27T19:07:20.390Z,69.42
2018-11-27T19:09:51.134Z,69.58
2018-11-27T19:12:22.043Z,69.49
2018-11-27T19:14:52.792Z,70.17
2018-11-27T19:17:23.426Z,69.81
2018-11-27T19:19:54.114Z,70.31
2018-11-27T19:22:24.776Z,71.94
2018-11-27T19:24:55.490Z,71.70
2018-11-27T19:27:26.215Z,70.91
2018-11-27T19:29:56.903Z,70.84
2018-11-27T19:32:27.603Z,70.67
2018-11-27T19:34:58.494Z,70.32
2018-11-27T19:37:29.316Z,71.07
2018-11-27T19:40:00.008Z,70.40
2018-11-27T19:42:30.671Z,70.90
2018-11-27T19:45:01.475Z,70.73
2018-11-27T19:47:32.202Z,71.26
2018-11-27T19:50:03.055Z,69.97
2018-11-27T19:52:33.750Z,70.62
2018-11-27T19:55:04.614Z,70.67
2018-11-27T19:57:35.315Z,71.29
2018-11-27T20:00:17.539Z,71.41
2018-11-27T20:02:48.346Z,71.18
2018-11-27T20:05:23.877Z,71.40
2018-11-27T20:07:54.726Z,71.90
2018-11-27T20:10:25.479Z,72.14
2018-11-27T20:12:56.133Z,72.27
2018-11-27T20:15:28.447Z,72.26
2018-11-27T20:17:59.419Z,72.18
2018-11-27T20:20:30.226Z,72.41
2018-11-27T20:23:01.015Z,72.94
2018-11-27T20:25:31.701Z,72.87
2018-11-27T20:28:02.563Z,72.49
2018-11-27T20:30:33.281Z,72.89
2018-11-27T20:33:04.839Z,73.11
2018-11-27T20:35:35.685Z,73.33
2018-11-27T20:38:09.523Z,72.91
2018-11-27T20:40:41.206Z,72.92
2018-11-27T20:43:12.216Z,72.88
2018-11-27T20:45:42.895Z,73.50
2018-11-27T20:48:18.751Z,73.69
2018-11-27T20:50:51.978Z,73.51
2018-11-27T20:53:22.734Z,72.88
2018-11-27T20:55:53.491Z,73.51
2018-11-27T20:58:24.286Z,73.86
2018-11-27T21:00:55.465Z,73.68
2018-11-27T21:03:26.186Z,73.98
2018-11-27T21:05:56.925Z,74.38
2018-11-27T21:08:27.634Z,73.96
2018-11-27T21:10:58.350Z,74.05
2018-11-27T21:13:28.992Z,74.17
2018-11-27T21:16:30.809Z,73.88
2018-11-27T21:19:01.509Z,74.75
2018-11-27T21:21:32.206Z,74.45
2018-11-27T21:24:02.976Z,74.29
2018-11-27T21:26:33.625Z,74.28
2018-11-27T21:29:04.359Z,74.35
2018-11-27T21:31:35.071Z,73.93
2018-11-27T21:34:05.892Z,73.59
2018-11-27T21:36:36.643Z,73.59
2018-11-27T21:39:09.796Z,73.72
2018-11-27T21:41:40.510Z,74.23
2018-11-27T21:44:11.219Z,74.02
2018-11-27T21:46:41.861Z,73.57
2018-11-27T21:49:12.622Z,73.50
2018-11-27T21:51:43.238Z,73.68
2018-11-27T21:54:13.900Z,73.78
2018-11-27T21:56:44.575Z,73.26
2018-11-27T21:59:15.285Z,73.08
2018-11-27T22:01:45.973Z,72.96
2018-11-27T22:04:16.629Z,72.98
2018-11-27T22:06:47.312Z,72.96
2018-11-27T22:09:18.064Z,72.96
2018-11-27T22:11:48.707Z,73.91
2018-11-27T22:14:19.348Z,73.20
2018-11-27T22:16:50.058Z,73.21
2018-11-27T22:19:20.753Z,73.80
2018-11-27T22:21:51.480Z,73.54
2018-11-27T22:24:22.200Z,73.30
2018-11-27T22:26:52.839Z,73.70
2018-11-27T22:29:23.503Z,73.50
2018-11-27T22:31:54.190Z,72.94
2018-11-27T22:34:24.884Z,72.91
2018-11-27T22:36:55.584Z,72.54
2018-11-27T22:39:26.244Z,72.75
2018-11-27T22:41:56.867Z,72.49
2018-11-27T22:44:27.554Z,72.24
2018-11-27T22:46:58.245Z,72.17
2018-11-27T22:49:28.886Z,71.62
2018-11-27T22:51:59.530Z,71.64
2018-11-27T22:54:30.210Z,71.97
2018-11-27T22:57:00.878Z,71.29
2018-11-27T22:59:31.554Z,71.93
2018-11-27T23:02:02.233Z,71.83
2018-11-27T23:04:32.908Z,71.21
2018-11-27T23:07:03.560Z,72.14
2018-11-27T23:09:34.263Z,71.53
2018-11-27T23:12:05.130Z,72.07
2018-11-27T23:14:35.822Z,71.33
2018-11-27T23:17:06.622Z,71.61
2018-11-27T23:19:37.414Z,71.49
2018-11-27T23:22:08.139Z,70.94
2018-11-27T23:24:38.943Z,71.55
2018-11-27T23:27:09.644Z,71.25
2018-11-27T23:29:40.618Z,70.62
2018-11-27T23:32:11.284Z,70.56
2018-11-27T23:34:41.951Z,70.79
2018-11-27T23:37:12.671Z,70.30
2018-11-27T23:39:43.381Z,70.79
2018-11-27T23:42:14.077Z,70.52
2018-11-27T23:44:44.733Z,70.35
2018-11-27T23:47:15.474Z,70.16
2018-11-27T23:49:46.144Z,69.72
2018-11-27T23:52:16.894Z,69.87
2018-11-27T23:54:47.576Z,69.81
2018-11-27T23:57:18.211Z,69.88
2018-11-27T23:59:48.889Z,69.99
